Time;durP1;ratioP1;P1;durP2;ratioP2;P2;SDS_P1;SDS_P2;PMS_P1;PMS_P2;Temp;Humidity;BMP_temperature;BMP_pressure;BME280_temperature;BME280_humidity;BME280_pressure;Samples;Min_cycle;Max_cycle;Signal;HPM_P1;HPM_P2
2024/01/16 00:01:51;;;;;;;0.13;0.13;;;;;;;2.95;48.11;99790.53;5043055;28;20194;-40
2024/01/16 00:04:16;;;;;;;0.10;0.10;;;;;;;3.00;47.57;99794.63;5037854;28;20072;-39
2024/01/16 00:06:43;;;;;;;0.10;0.10;;;;;;;2.90;47.59;99794.16;5043449;28;20032;-39
2024/01/16 00:09:11;;;;;;;0.20;0.20;;;;;;;2.66;48.00;99801.22;5039466;28;20056;-39
2024/01/16 00:11:41;;;;;;;0.10;0.10;;;;;;;2.81;47.74;99806.69;5042642;28;20031;-38
2024/01/16 00:14:06;;;;;;;0.10;0.10;;;;;;;2.48;48.09;99817.53;5038644;28;20032;-39
2024/01/16 00:16:31;;;;;;;0.10;0.10;;;;;;;2.57;48.40;99812.81;5040585;28;20438;-40
2024/01/16 00:18:57;;;;;;;0.13;0.13;;;;;;;2.54;48.72;99817.28;5037160;28;20063;-39
2024/01/16 00:21:22;;;;;;;0.10;0.10;;;;;;;2.62;48.76;99817.84;5037944;28;20121;-39
2024/01/16 00:23:47;;;;;;;0.10;0.10;;;;;;;2.29;48.46;99820.84;5043663;28;20056;-40
2024/01/16 00:26:22;;;;;;;1.95;1.27;;;;;;;2.73;48.13;99823.44;5043011;28;20802;-39
2024/01/16 00:28:48;;;;;;;0.10;0.10;;;;;;;2.37;48.07;99829.16;5044229;28;20065;-39
2024/01/16 00:31:14;;;;;;;0.10;0.10;;;;;;;2.75;48.47;99825.97;5043336;28;20076;-40
2024/01/16 00:33:39;;;;;;;0.10;0.10;;;;;;;2.72;47.92;99821.75;5046295;28;20518;-39
2024/01/16 00:36:05;;;;;;;0.10;0.10;;;;;;;2.87;48.32;99824.66;5042618;28;20511;-40
2024/01/16 00:38:33;;;;;;;0.10;0.10;;;;;;;2.71;48.08;99827.84;5039317;28;20495;-39
2024/01/16 00:40:58;;;;;;;0.10;0.10;;;;;;;2.96;48.28;99824.25;5042283;28;20047;-39
2024/01/16 00:43:24;;;;;;;0.10;0.10;;;;;;;3.12;47.72;99828.81;5039558;28;20033;-38
2024/01/16 00:45:50;;;;;;;0.10;0.10;;;;;;;3.23;47.68;99838.78;5043494;28;20029;-39
2024/01/16 00:48:15;;;;;;;0.30;0.30;;;;;;;3.30;47.59;99832.44;5042042;28;20117;-40
2024/01/16 00:50:41;;;;;;;0.10;0.10;;;;;;;3.33;47.68;99843.53;5042236;28;20403;-39
2024/01/16 00:53:06;;;;;;;0.10;0.10;;;;;;;3.33;47.44;99842.69;5039536;28;20102;-39
2024/01/16 00:55:32;;;;;;;0.10;0.10;;;;;;;3.07;47.12;99843.78;5042603;28;20041;-39
2024/01/16 00:57:57;;;;;;;0.10;0.10;;;;;;;3.23;47.93;99841.38;5045570;28;20543;-39
2024/01/16 01:00:23;;;;;;;0.10;0.10;;;;;;;3.06;47.39;99850.72;5040783;28;21171;-40
2024/01/16 01:02:48;;;;;;;0.10;0.10;;;;;;;2.93;46.98;99854.72;5042687;28;20025;-39
2024/01/16 01:05:13;;;;;;;0.10;0.10;;;;;;;2.82;47.34;99858.63;5042392;28;20060;-39
2024/01/16 01:07:39;;;;;;;0.10;0.10;;;;;;;2.82;47.34;99857.75;5036894;28;20462;-40
2024/01/16 01:10:05;;;;;;;0.10;0.10;;;;;;;2.98;47.67;99866.63;5043864;28;20542;-39
2024/01/16 01:12:30;;;;;;;0.10;0.10;;;;;;;2.80;47.51;99865.63;5044347;28;20041;-40
2024/01/16 01:14:56;;;;;;;0.10;0.10;;;;;;;2.68;46.94;99866.09;5042700;28;20037;-39
2024/01/16 01:17:21;;;;;;;0.10;0.10;;;;;;;2.59;47.80;99865.53;5043824;28;20036;-39
2024/01/16 01:19:46;;;;;;;0.20;0.20;;;;;;;2.37;47.74;99873.31;5040287;28;21125;-39
2024/01/16 01:22:12;;;;;;;0.10;0.10;;;;;;;2.29;48.30;99872.75;5043806;28;20029;-40
2024/01/16 01:24:37;;;;;;;0.13;0.13;;;;;;;2.01;49.17;99872.91;5045791;28;20033;-39
2024/01/16 01:27:03;;;;;;;0.10;0.10;;;;;;;1.66;48.92;99876.69;5042717;28;20526;-39
2024/01/16 01:29:29;;;;;;;0.10;0.10;;;;;;;2.16;48.95;99879.31;5040416;28;20029;-39
2024/01/16 01:31:54;;;;;;;0.10;0.10;;;;;;;2.27;48.84;99879.75;5044500;28;20033;-40
2024/01/16 01:34:20;;;;;;;0.20;0.20;;;;;;;2.28;48.50;99868.47;5027026;28;20033;-40
2024/01/16 01:36:45;;;;;;;0.10;0.10;;;;;;;2.15;49.30;99877.63;5044273;28;20809;-39
2024/01/16 01:39:11;;;;;;;0.10;0.10;;;;;;;2.25;49.22;99873.78;5042129;28;20095;-40
2024/01/16 01:41:36;;;;;;;0.10;0.10;;;;;;;2.09;49.08;99879.53;5044452;28;20024;-39
2024/01/16 01:44:02;;;;;;;0.10;0.10;;;;;;;2.36;49.43;99886.34;5041123;28;20029;-39
2024/01/16 01:46:29;;;;;;;0.10;0.10;;;;;;;2.04;49.03;99889.22;5041055;28;20282;-40
2024/01/16 01:48:55;;;;;;;0.10;0.10;;;;;;;2.13;50.08;99882.84;5043364;28;20029;-39
2024/01/16 01:51:21;;;;;;;0.15;0.15;;;;;;;2.19;50.20;99884.41;5044425;28;20039;-39
2024/01/16 01:53:49;;;;;;;0.10;0.10;;;;;;;2.33;51.04;99882.13;5043641;28;20028;-40
2024/01/16 01:56:18;;;;;;;0.10;0.10;;;;;;;2.29;49.98;99890.94;5025896;28;20029;-39
2024/01/16 01:58:45;;;;;;;0.10;0.10;;;;;;;1.79;50.79;99903.06;5043816;28;20025;-39
2024/01/16 02:01:11;;;;;;;0.10;0.10;;;;;;;2.02;50.69;99905.75;5042748;28;20087;-39
2024/01/16 02:03:44;;;;;;;0.10;0.10;;;;;;;1.64;51.56;99919.16;5045774;28;20029;-39
2024/01/16 02:06:13;;;;;;;0.10;0.10;;;;;;;1.88;51.85;99924.41;5041078;28;20119;-40
2024/01/16 02:08:43;;;;;;;0.10;0.10;;;;;;;2.08;51.85;99919.34;5043383;28;20087;-40
2024/01/16 02:11:09;;;;;;;0.10;0.10;;;;;;;2.29;51.77;99922.09;5041630;28;20148;-40
2024/01/16 02:13:35;;;;;;;0.13;0.13;;;;;;;2.04;51.83;99922.94;5040518;28;20075;-39
2024/01/16 02:16:01;;;;;;;0.10;0.10;;;;;;;1.54;53.32;99928.16;5039751;28;20033;-39
2024/01/16 02:18:26;;;;;;;0.10;0.10;;;;;;;1.57;53.51;99928.06;5044580;28;20021;-39
2024/01/16 02:20:52;;;;;;;0.10;0.10;;;;;;;1.80;53.73;99930.72;5042173;28;20048;-39
2024/01/16 02:23:26;;;;;;;0.10;0.10;;;;;;;1.81;53.60;99937.59;5042606;28;20120;-39
2024/01/16 02:25:53;;;;;;;0.10;0.10;;;;;;;1.60;53.82;99933.13;5044002;28;20487;-40
2024/01/16 02:28:18;;;;;;;0.10;0.10;;;;;;;1.58;53.97;99946.16;5040008;28;20052;-39
2024/01/16 02:30:43;;;;;;;0.10;0.10;;;;;;;1.45;55.15;99956.06;5039371;28;20025;-39
2024/01/16 02:33:09;;;;;;;0.10;0.10;;;;;;;1.43;55.19;99963.06;5044471;28;20677;-39
2024/01/16 02:35:34;;;;;;;0.10;0.10;;;;;;;1.67;54.53;99978.72;5043700;28;20090;-39
2024/01/16 02:38:00;;;;;;;0.10;0.10;;;;;;;1.21;55.90;99968.09;5043951;28;20039;-39
2024/01/16 02:40:26;;;;;;;0.10;0.10;;;;;;;1.51;55.82;99966.25;5041682;28;20040;-39
2024/01/16 02:42:52;;;;;;;0.10;0.10;;;;;;;1.23;56.56;99975.81;5043761;28;20028;-39
2024/01/16 02:45:17;;;;;;;0.10;0.10;;;;;;;0.69;58.30;99976.53;5041918;28;20709;-40
2024/01/16 02:47:43;;;;;;;0.10;0.10;;;;;;;0.70;58.70;99982.56;5041370;28;20079;-40
2024/01/16 02:50:09;;;;;;;0.10;0.10;;;;;;;1.12;57.71;99989.97;5042126;28;20033;-40
2024/01/16 02:52:35;;;;;;;1.48;1.48;;;;;;;0.98;58.18;99995.53;5043632;28;20669;-40
2024/01/16 02:55:01;;;;;;;0.10;0.10;;;;;;;0.81;58.95;100001.25;5040722;28;20033;-39
2024/01/16 02:57:26;;;;;;;0.10;0.10;;;;;;;0.89;58.81;99998.41;5038685;28;20638;-39
2024/01/16 02:59:52;;;;;;;0.10;0.10;;;;;;;0.97;58.13;100000.78;5040523;28;20114;-39
2024/01/16 03:02:17;;;;;;;0.20;0.20;;;;;;;1.10;57.81;100007.28;5040807;28;20029;-39
2024/01/16 03:04:42;;;;;;;0.10;0.10;;;;;;;1.11;57.83;100002.94;5037544;28;24773;-39
2024/01/16 03:07:08;;;;;;;0.10;0.10;;;;;;;1.01;57.24;100007.56;5042391;28;20029;-39
2024/01/16 03:09:33;;;;;;;0.10;0.10;;;;;;;1.17;57.72;100006.19;5042901;28;20052;-39
2024/01/16 03:11:59;;;;;;;0.10;0.10;;;;;;;1.39;56.76;100015.91;5023743;28;20384;-40
2024/01/16 03:14:25;;;;;;;0.10;0.10;;;;;;;1.28;57.92;100015.41;5040550;28;20134;-39
2024/01/16 03:16:50;;;;;;;0.10;0.10;;;;;;;1.13;58.12;100022.75;5043244;28;20041;-38
2024/01/16 03:19:16;;;;;;;0.10;0.10;;;;;;;1.10;58.15;100025.44;5042111;28;20055;-40
2024/01/16 03:21:42;;;;;;;0.10;0.10;;;;;;;1.33;57.95;100029.06;5040830;28;20037;-39
2024/01/16 03:24:10;;;;;;;0.10;0.10;;;;;;;1.50;57.72;100031.13;5041143;28;20376;-39
2024/01/16 03:26:37;;;;;;;0.10;0.10;;;;;;;1.47;57.45;100039.00;5041301;28;20040;-40
2024/01/16 03:29:02;;;;;;;0.10;0.10;;;;;;;1.45;57.62;100039.03;5042970;28;20396;-40
2024/01/16 03:31:28;;;;;;;0.10;0.10;;;;;;;1.64;57.59;100039.31;5040810;28;20037;-40
2024/01/16 03:33:53;;;;;;;13.20;12.55;;;;;;;1.54;57.49;100044.84;5041378;28;20036;-39
2024/01/16 03:36:19;;;;;;;0.10;0.10;;;;;;;1.19;58.04;100047.63;5041475;28;20075;-39
2024/01/16 03:38:44;;;;;;;0.10;0.10;;;;;;;1.45;58.25;100053.75;5041729;28;20021;-40
2024/01/16 03:41:13;;;;;;;0.10;0.10;;;;;;;1.42;57.65;100048.66;5039816;28;20091;-40
2024/01/16 03:43:40;;;;;;;0.10;0.10;;;;;;;1.55;57.59;100042.19;5038756;28;20032;-39
2024/01/16 03:46:05;;;;;;;0.10;0.10;;;;;;;1.53;58.10;100049.16;5040356;28;20028;-39
2024/01/16 03:48:30;;;;;;;0.10;0.10;;;;;;;1.49;57.93;100052.78;5039649;28;20029;-39
2024/01/16 03:50:56;;;;;;;0.10;0.10;;;;;;;1.74;57.40;100052.81;5042329;28;20032;-39
2024/01/16 03:53:22;;;;;;;0.10;0.10;;;;;;;1.45;57.83;100054.59;5041340;28;20547;-39
2024/01/16 03:55:49;;;;;;;0.10;0.10;;;;;;;1.23;59.39;100043.19;5038642;28;20434;-39
2024/01/16 03:58:15;;;;;;;1.48;1.40;;;;;;;1.37;58.83;100059.19;5042476;28;20086;-39
2024/01/16 04:00:40;;;;;;;0.10;0.10;;;;;;;1.21;59.67;100062.22;5045821;28;20048;-39
2024/01/16 04:03:07;;;;;;;0.10;0.10;;;;;;;1.43;59.36;100066.78;5045827;28;20029;-39
2024/01/16 04:05:32;;;;;;;0.10;0.10;;;;;;;1.52;59.35;100065.63;5045211;28;20039;-39
2024/01/16 04:07:58;;;;;;;0.10;0.10;;;;;;;1.35;59.91;100066.16;5040212;28;20041;-39
2024/01/16 04:10:23;;;;;;;0.10;0.10;;;;;;;1.50;59.13;100068.28;5040510;28;20661;-38
2024/01/16 04:12:49;;;;;;;0.10;0.10;;;;;;;1.59;59.45;100071.50;5043192;28;20037;-38
2024/01/16 04:15:14;;;;;;;0.10;0.10;;;;;;;1.58;59.43;100081.00;5043395;28;20100;-40
2024/01/16 04:17:40;;;;;;;1.63;1.55;;;;;;;1.41;59.97;100083.25;5045433;28;20025;-39
2024/01/16 04:20:07;;;;;;;0.10;0.10;;;;;;;1.79;58.23;100087.25;5045837;28;20103;-39
2024/01/16 04:22:33;;;;;;;0.10;0.10;;;;;;;1.73;59.10;100084.88;5042107;28;20040;-40
2024/01/16 04:24:58;;;;;;;0.10;0.10;;;;;;;1.71;59.11;100085.78;5045820;28;20106;-39
2024/01/16 04:27:25;;;;;;;0.10;0.10;;;;;;;1.71;59.20;100081.47;5045705;28;20033;-39
2024/01/16 04:29:51;;;;;;;1.27;0.20;;;;;;;1.82;59.13;100087.16;5047666;28;20032;-40
2024/01/16 04:32:16;;;;;;;0.10;0.10;;;;;;;1.18;60.08;100088.22;5044407;28;20043;-39
2024/01/16 04:34:42;;;;;;;0.70;0.45;;;;;;;1.48;59.93;100090.81;5045177;28;20024;-39
2024/01/16 04:37:07;;;;;;;0.20;0.20;;;;;;;1.24;60.89;100087.19;5045657;28;20029;-39
2024/01/16 04:39:33;;;;;;;0.10;0.10;;;;;;;1.37;60.55;100100.66;5043494;28;20112;-39
2024/01/16 04:41:58;;;;;;;0.10;0.10;;;;;;;1.59;60.28;100102.59;5046584;28;20041;-39
2024/01/16 04:44:24;;;;;;;0.10;0.10;;;;;;;1.24;60.57;100104.50;5042845;28;20174;-39
2024/01/16 04:46:49;;;;;;;0.10;0.10;;;;;;;1.47;60.30;100099.47;5045389;28;20111;-39
2024/01/16 04:49:14;;;;;;;0.10;0.10;;;;;;;1.57;60.04;100099.22;5042335;28;20091;-40
2024/01/16 04:51:40;;;;;;;0.10;0.10;;;;;;;1.47;60.33;100102.06;5043546;28;20166;-39
2024/01/16 04:54:05;;;;;;;0.10;0.10;;;;;;;0.97;62.03;100104.41;5045951;28;20044;-39
2024/01/16 04:56:30;;;;;;;0.10;0.10;;;;;;;1.36;60.46;100107.56;5025041;28;20025;-39
2024/01/16 04:58:56;;;;;;;5.25;1.20;;;;;;;1.39;60.95;100095.41;5043240;28;20572;-39
2024/01/16 05:01:21;;;;;;;0.22;0.22;;;;;;;1.35;60.08;100100.72;5045541;28;20063;-39
2024/01/16 05:03:47;;;;;;;0.20;0.20;;;;;;;1.26;60.62;100090.59;5045235;28;20033;-39
2024/01/16 05:06:15;;;;;;;0.20;0.20;;;;;;;1.48;59.86;100084.78;5044635;28;20040;-40
2024/01/16 05:08:42;;;;;;;0.28;0.28;;;;;;;1.49;59.36;100102.88;5044544;28;20384;-39
2024/01/16 05:11:08;;;;;;;0.10;0.10;;;;;;;1.42;59.73;100098.78;5045251;28;20037;-39
2024/01/16 05:13:33;;;;;;;0.10;0.10;;;;;;;1.67;59.85;100111.81;5041960;28;20084;-39
2024/01/16 05:15:59;;;;;;;0.10;0.10;;;;;;;1.51;59.53;100111.47;5039059;28;20116;-39
2024/01/16 05:18:24;;;;;;;0.20;0.20;;;;;;;1.44;59.09;100115.13;5043774;28;20108;-39
2024/01/16 05:20:49;;;;;;;0.10;0.10;;;;;;;1.64;58.87;100117.13;5045791;28;20040;-40
2024/01/16 05:23:15;;;;;;;0.10;0.10;;;;;;;1.82;58.73;100112.25;5026883;28;20152;-39
2024/01/16 05:25:40;;;;;;;0.10;0.10;;;;;;;1.95;59.04;100112.72;5041861;28;20040;-39
2024/01/16 05:28:05;;;;;;;0.20;0.20;;;;;;;1.91;58.70;100118.88;5045838;28;20029;-39
2024/01/16 05:30:32;;;;;;;0.10;0.10;;;;;;;1.64;58.52;100126.63;5039548;28;20039;-39
2024/01/16 05:33:00;;;;;;;0.17;0.17;;;;;;;1.76;58.90;100125.41;5041390;28;20028;-40
2024/01/16 05:35:29;;;;;;;0.10;0.10;;;;;;;1.94;58.35;100135.22;5043910;28;20040;-39
2024/01/16 05:37:55;;;;;;;0.10;0.10;;;;;;;1.32;59.37;100151.78;5045841;28;20021;-39
2024/01/16 05:40:21;;;;;;;0.10;0.10;;;;;;;1.44;59.12;100146.22;5043108;28;20033;-39
2024/01/16 05:42:51;;;;;;;0.10;0.10;;;;;;;1.47;59.20;100153.94;5030344;28;20029;-39
2024/01/16 05:45:16;;;;;;;0.10;0.10;;;;;;;1.75;58.90;100150.50;5039929;28;20128;-39
2024/01/16 05:47:42;;;;;;;0.10;0.10;;;;;;;1.66;58.53;100150.78;5042146;28;20078;-39
2024/01/16 05:50:08;;;;;;;0.10;0.10;;;;;;;1.80;58.26;100169.38;5043836;28;20074;-40
2024/01/16 05:52:34;;;;;;;0.10;0.10;;;;;;;1.98;58.09;100169.72;5043941;28;20495;-40
2024/01/16 05:54:59;;;;;;;0.20;0.20;;;;;;;1.90;57.92;100169.94;5035015;28;20033;-39
2024/01/16 05:57:26;;;;;;;0.10;0.10;;;;;;;1.94;57.41;100175.88;5037944;28;20385;-40
2024/01/16 05:59:51;;;;;;;0.10;0.10;;;;;;;2.09;57.60;100179.75;5045627;28;20044;-39
2024/01/16 06:02:17;;;;;;;0.10;0.10;;;;;;;1.82;56.57;100180.56;5046206;28;20037;-40
2024/01/16 06:04:42;;;;;;;0.10;0.10;;;;;;;1.90;56.59;100174.25;5042735;28;20098;-40
2024/01/16 06:07:08;;;;;;;0.10;0.10;;;;;;;1.90;56.47;100179.47;5032293;28;20070;-38
2024/01/16 06:09:37;;;;;;;0.10;0.10;;;;;;;1.81;57.01;100178.84;5031957;28;20033;-39
2024/01/16 06:12:03;;;;;;;0.10;0.10;;;;;;;1.92;56.91;100182.84;5044235;28;20482;-39
2024/01/16 06:14:29;;;;;;;0.10;0.10;;;;;;;2.22;57.88;100186.25;5041517;28;20069;-40
2024/01/16 06:16:54;;;;;;;0.10;0.10;;;;;;;2.31;57.72;100184.25;5044305;28;20839;-39
2024/01/16 06:19:19;;;;;;;0.10;0.10;;;;;;;2.33;57.88;100187.66;5045065;28;20087;-40
2024/01/16 06:21:45;;;;;;;0.10;0.10;;;;;;;2.41;57.74;100189.09;5042684;28;20029;-39
2024/01/16 06:24:11;;;;;;;0.10;0.10;;;;;;;2.49;57.15;100201.00;5044824;28;20396;-39
2024/01/16 06:26:36;;;;;;;0.10;0.10;;;;;;;2.52;56.99;100198.28;5043235;28;20041;-40
2024/01/16 06:29:03;;;;;;;0.10;0.10;;;;;;;2.54;57.40;100206.88;5047433;28;20032;-40
2024/01/16 06:31:28;;;;;;;0.10;0.10;;;;;;;2.63;57.62;100205.72;5044809;28;20033;-39
2024/01/16 06:33:54;;;;;;;0.10;0.10;;;;;;;2.56;56.83;100210.28;5044236;28;20029;-40
2024/01/16 06:36:19;;;;;;;0.10;0.10;;;;;;;2.47;57.48;100210.59;5045868;28;20541;-40
2024/01/16 06:38:44;;;;;;;0.20;0.20;;;;;;;2.45;57.80;100200.22;5044769;28;20099;-39
2024/01/16 06:41:10;;;;;;;0.10;0.10;;;;;;;2.33;57.78;100209.28;5042630;28;20040;-39
2024/01/16 06:43:35;;;;;;;0.10;0.10;;;;;;;2.51;57.87;100210.44;5043999;28;20033;-39
2024/01/16 06:46:00;;;;;;;0.10;0.10;;;;;;;2.55;57.49;100208.56;5045272;28;20033;-39
2024/01/16 06:48:26;;;;;;;0.10;0.10;;;;;;;2.54;57.01;100204.28;5042974;28;20115;-39
2024/01/16 06:50:51;;;;;;;0.32;0.32;;;;;;;2.50;57.50;100226.91;5045280;28;20353;-40
2024/01/16 06:53:17;;;;;;;0.10;0.10;;;;;;;2.39;57.86;100235.03;5045167;28;20613;-39
2024/01/16 06:55:42;;;;;;;0.20;0.20;;;;;;;2.20;58.50;100232.19;5043971;28;20039;-40
2024/01/16 06:58:09;;;;;;;0.50;0.50;;;;;;;2.17;58.67;100228.84;5042558;28;20072;-39
2024/01/16 07:00:35;;;;;;;0.10;0.10;;;;;;;2.12;58.97;100242.78;5040903;28;20060;-40
2024/01/16 07:03:00;;;;;;;0.10;0.10;;;;;;;2.35;59.16;100246.41;5043364;28;20068;-39
2024/01/16 07:05:25;;;;;;;0.10;0.10;;;;;;;2.35;58.30;100246.41;5046488;28;20060;-39
2024/01/16 07:07:51;;;;;;;0.20;0.20;;;;;;;2.46;58.24;100246.06;5043593;28;20495;-39
2024/01/16 07:10:21;;;;;;;0.10;0.10;;;;;;;2.50;58.04;100245.09;5042905;28;20041;-39
2024/01/16 07:12:49;;;;;;;0.10;0.10;;;;;;;2.19;58.55;100261.63;5046636;28;20037;-39
2024/01/16 07:15:14;;;;;;;0.10;0.10;;;;;;;1.96;58.98;100257.13;5041891;28;20040;-39
2024/01/16 07:17:40;;;;;;;0.13;0.13;;;;;;;1.65;60.41;100264.06;5046170;28;20617;-39
2024/01/16 07:20:07;;;;;;;0.10;0.10;;;;;;;1.75;60.17;100263.81;5044078;28;20039;-39
2024/01/16 07:22:34;;;;;;;0.10;0.10;;;;;;;1.91;59.91;100259.88;5043606;28;20773;-39
2024/01/16 07:24:59;;;;;;;0.10;0.10;;;;;;;2.09;59.63;100262.81;5047328;28;20086;-39
2024/01/16 07:27:25;;;;;;;0.10;0.10;;;;;;;2.29;59.63;100264.78;5042201;28;20028;-39
2024/01/16 07:29:50;;;;;;;0.10;0.10;;;;;;;2.40;59.41;100261.88;5040107;28;20380;-39
2024/01/16 07:32:16;;;;;;;0.10;0.10;;;;;;;2.53;58.78;100264.91;5043857;28;20044;-40
2024/01/16 07:34:41;;;;;;;0.10;0.10;;;;;;;2.63;58.11;100273.25;5041135;28;20037;-39
2024/01/16 07:37:06;;;;;;;0.22;0.22;;;;;;;2.54;58.39;100277.00;5043050;28;20026;-39
2024/01/16 07:39:32;;;;;;;0.10;0.10;;;;;;;2.69;58.19;100284.31;5044872;28;20369;-40
2024/01/16 07:41:58;;;;;;;0.10;0.10;;;;;;;2.51;57.79;100290.06;5043123;28;20052;-39
2024/01/16 07:44:23;;;;;;;0.10;0.10;;;;;;;2.32;58.23;100295.88;5042641;28;20032;-39
2024/01/16 07:46:49;;;;;;;0.10;0.10;;;;;;;2.10;58.25;100296.50;5039314;28;20067;-39
2024/01/16 07:49:16;;;;;;;1.42;1.38;;;;;;;2.17;58.38;100314.50;5043179;28;20041;-40
2024/01/16 07:51:41;;;;;;;0.10;0.10;;;;;;;2.11;58.16;100324.16;5037920;28;20025;-39
2024/01/16 07:54:08;;;;;;;0.10;0.10;;;;;;;2.17;59.29;100317.09;5042983;28;20082;-40
2024/01/16 07:56:34;;;;;;;0.10;0.10;;;;;;;2.09;58.78;100320.75;5045635;28;20029;-39
2024/01/16 07:59:01;;;;;;;0.10;0.10;;;;;;;2.39;58.57;100322.50;5043661;28;20062;-39
2024/01/16 08:01:26;;;;;;;2.05;1.95;;;;;;;2.57;58.37;100315.88;5024308;28;20148;-40
2024/01/16 08:03:52;;;;;;;0.10;0.10;;;;;;;2.61;57.86;100317.47;5039446;28;20455;-39
2024/01/16 08:06:17;;;;;;;0.10;0.10;;;;;;;2.71;57.85;100320.63;5045404;28;20542;-39
2024/01/16 08:08:42;;;;;;;0.13;0.13;;;;;;;2.74;58.08;100320.53;5041087;28;20029;-39
2024/01/16 08:11:08;;;;;;;0.10;0.10;;;;;;;2.84;57.74;100328.88;5041570;28;20033;-40
2024/01/16 08:13:33;;;;;;;0.20;0.20;;;;;;;2.84;57.76;100332.34;5020150;28;20563;-39
2024/01/16 08:15:58;;;;;;;0.10;0.10;;;;;;;2.71;57.64;100331.88;5027365;28;20048;-40
2024/01/16 08:18:24;;;;;;;0.10;0.10;;;;;;;2.54;57.60;100336.75;5040753;28;20513;-40
2024/01/16 08:20:50;;;;;;;0.10;0.10;;;;;;;2.57;57.81;100341.84;5039046;28;20040;-40
2024/01/16 08:23:15;;;;;;;0.17;0.17;;;;;;;2.27;58.35;100349.66;5041142;28;20041;-40
2024/01/16 08:25:41;;;;;;;0.10;0.10;;;;;;;2.42;58.53;100351.81;5041941;28;20048;-39
2024/01/16 08:28:06;;;;;;;0.10;0.10;;;;;;;2.37;58.19;100352.84;5044305;28;20538;-39
2024/01/16 08:30:31;;;;;;;0.10;0.10;;;;;;;2.38;58.62;100357.97;5042868;28;20034;-39
2024/01/16 08:32:57;;;;;;;0.20;0.20;;;;;;;2.29;57.78;100358.25;5042836;28;20830;-39
2024/01/16 08:35:22;;;;;;;0.10;0.10;;;;;;;2.23;58.30;100366.22;5043643;28;20043;-39
2024/01/16 08:37:49;;;;;;;0.10;0.10;;;;;;;2.14;58.31;100364.75;5042282;28;20014;-39
2024/01/16 08:40:15;;;;;;;0.75;0.75;;;;;;;2.12;58.86;100363.94;5045263;28;20405;-39
2024/01/16 08:42:40;;;;;;;0.10;0.10;;;;;;;2.22;58.70;100364.50;5045326;28;20031;-39
2024/01/16 08:45:06;;;;;;;0.10;0.10;;;;;;;2.28;58.59;100360.00;5040701;28;20479;-39
2024/01/16 08:47:31;;;;;;;0.10;0.10;;;;;;;2.25;58.56;100362.72;5043412;28;20032;-39
2024/01/16 08:49:57;;;;;;;0.10;0.10;;;;;;;2.27;58.67;100357.47;5045450;28;20399;-39
2024/01/16 08:52:23;;;;;;;0.10;0.10;;;;;;;2.24;58.45;100352.34;5046710;28;20028;-39
2024/01/16 08:54:49;;;;;;;0.10;0.10;;;;;;;1.83;58.62;100344.84;5048698;28;20304;-39
2024/01/16 08:57:14;;;;;;;0.10;0.10;;;;;;;2.14;59.21;100346.56;5048106;28;20159;-40
2024/01/16 08:59:40;;;;;;;0.10;0.10;;;;;;;2.24;59.31;100344.56;5043952;28;20098;-39
2024/01/16 09:02:06;;;;;;;0.10;0.10;;;;;;;2.21;58.73;100345.50;5042791;28;20503;-39
2024/01/16 09:04:31;;;;;;;0.30;0.30;;;;;;;2.36;58.90;100339.00;5045767;28;20044;-39
2024/01/16 09:06:57;;;;;;;0.10;0.10;;;;;;;2.48;58.85;100339.53;5049561;28;20511;-39
2024/01/16 09:09:22;;;;;;;0.10;0.10;;;;;;;2.47;58.67;100345.63;5047718;28;20040;-40
2024/01/16 09:11:47;;;;;;;0.10;0.10;;;;;;;2.37;58.16;100345.06;5039667;28;20025;-39
2024/01/16 09:14:13;;;;;;;0.10;0.10;;;;;;;2.25;58.22;100335.88;5044236;28;20037;-39
2024/01/16 09:16:38;;;;;;;1.17;1.17;;;;;;;2.35;58.05;100347.69;5041861;28;20387;-39
2024/01/16 09:19:04;;;;;;;0.10;0.10;;;;;;;2.36;58.55;100354.56;5049643;28;20025;-40
2024/01/16 09:21:29;;;;;;;0.10;0.10;;;;;;;2.05;58.67;100350.28;5050531;28;20160;-39
2024/01/16 09:23:55;;;;;;;0.10;0.10;;;;;;;1.86;59.16;100362.09;5048084;28;20037;-39
2024/01/16 09:26:20;;;;;;;0.10;0.10;;;;;;;1.87;59.61;100356.84;5046809;28;20029;-39
2024/01/16 09:28:46;;;;;;;0.10;0.10;;;;;;;1.83;59.14;100361.28;5048827;28;20053;-39
2024/01/16 09:31:11;;;;;;;0.10;0.10;;;;;;;1.74;59.69;100377.06;5045157;28;20039;-39
2024/01/16 09:33:37;;;;;;;0.10;0.10;;;;;;;1.82;59.96;100367.34;5048951;28;20030;-39
2024/01/16 09:36:02;;;;;;;0.10;0.10;;;;;;;1.75;59.80;100373.59;5048875;28;20116;-39
2024/01/16 09:38:28;;;;;;;0.10;0.10;;;;;;;1.82;59.73;100371.69;5045236;28;20036;-39
2024/01/16 09:40:58;;;;;;;0.20;0.20;;;;;;;1.74;59.82;100371.06;5044397;28;20029;-40
2024/01/16 09:43:27;;;;;;;0.20;0.20;;;;;;;2.03;59.84;100380.63;5040885;28;20092;-40
2024/01/16 09:45:54;;;;;;;0.10;0.10;;;;;;;2.02;59.31;100378.94;5041768;28;20040;-40
2024/01/16 09:48:20;;;;;;;0.10;0.10;;;;;;;2.42;59.40;100380.38;5047949;28;20082;-39
2024/01/16 09:50:45;;;;;;;0.10;0.10;;;;;;;2.19;58.79;100383.63;5049214;28;20033;-40
2024/01/16 09:53:11;;;;;;;0.10;0.10;;;;;;;2.46;59.06;100378.53;5047765;28;20106;-39
2024/01/16 09:55:36;;;;;;;0.10;0.10;;;;;;;2.68;58.81;100378.72;5043843;28;20037;-40
2024/01/16 09:58:05;;;;;;;0.10;0.10;;;;;;;2.80;58.42;100379.25;5032288;28;20037;-39
2024/01/16 10:00:32;;;;;;;0.10;0.10;;;;;;;2.71;58.26;100380.41;5021930;28;20045;-40
2024/01/16 10:02:59;;;;;;;0.10;0.10;;;;;;;2.86;58.00;100389.44;5049101;28;20025;-40
2024/01/16 10:05:25;;;;;;;0.10;0.10;;;;;;;2.71;58.17;100376.03;5043962;28;20480;-39
2024/01/16 10:07:51;;;;;;;0.20;0.20;;;;;;;2.81;57.96;100379.22;5043594;28;20033;-39
2024/01/16 10:10:18;;;;;;;0.10;0.10;;;;;;;2.96;58.04;100380.44;5042501;28;20040;-39
2024/01/16 10:12:43;;;;;;;0.10;0.10;;;;;;;2.89;57.73;100389.38;5016552;28;20094;-40
2024/01/16 10:15:09;;;;;;;0.10;0.10;;;;;;;2.89;57.45;100379.81;5041316;28;20055;-39
2024/01/16 10:17:43;;;;;;;0.10;0.10;;;;;;;2.90;57.79;100375.47;5041411;28;20037;-39
2024/01/16 10:20:13;;;;;;;0.10;0.10;;;;;;;3.03;57.41;100378.50;5042175;28;20036;-39
2024/01/16 10:22:40;;;;;;;0.10;0.10;;;;;;;3.11;57.70;100391.25;5042689;28;20040;-39
2024/01/16 10:25:16;;;;;;;0.10;0.10;;;;;;;3.13;57.62;100397.25;5039251;28;20036;-40
2024/01/16 10:27:42;;;;;;;0.10;0.10;;;;;;;2.85;57.26;100392.94;5041498;28;20057;-40
2024/01/16 10:30:10;;;;;;;0.10;0.10;;;;;;;2.62;57.52;100391.91;5039747;28;20078;-40
2024/01/16 10:32:43;;;;;;;0.10;0.10;;;;;;;2.61;58.01;100395.41;5041304;28;20503;-40
2024/01/16 10:35:13;;;;;;;0.10;0.10;;;;;;;2.71;58.14;100396.00;5044687;28;20040;-39
2024/01/16 10:37:53;;;;;;;0.10;0.10;;;;;;;2.48;57.71;100402.72;5045122;28;20109;-40
2024/01/16 10:40:29;;;;;;;0.10;0.10;;;;;;;2.55;58.33;100400.78;5042039;28;20068;-39
2024/01/16 10:43:00;;;;;;;0.10;0.10;;;;;;;2.65;58.43;100402.19;5037097;28;20037;-39
2024/01/16 10:45:26;;;;;;;0.10;0.10;;;;;;;2.88;58.05;100403.25;5022159;28;20036;-39
2024/01/16 10:48:02;;;;;;;0.20;0.20;;;;;;;3.11;58.14;100397.31;5043169;28;20029;-39
2024/01/16 10:50:28;;;;;;;0.17;0.17;;;;;;;3.06;57.35;100407.00;5042884;28;20617;-40
2024/01/16 10:52:54;;;;;;;0.10;0.10;;;;;;;3.28;57.77;100399.38;5041451;28;20120;-39
2024/01/16 10:55:23;;;;;;;0.10;0.10;;;;;;;3.00;56.98;100404.63;5041985;28;20041;-40
2024/01/16 10:57:52;;;;;;;0.10;0.10;;;;;;;3.27;57.27;100396.81;5040373;28;20013;-40
2024/01/16 11:00:23;;;;;;;0.10;0.10;;;;;;;3.36;57.33;100393.91;5035755;28;20025;-40
2024/01/16 11:03:04;;;;;;;0.10;0.10;;;;;;;3.62;57.17;100392.19;5034650;28;20506;-40
2024/01/16 11:05:33;;;;;;;0.10;0.10;;;;;;;3.64;56.84;100388.63;5039102;28;20029;-40
2024/01/16 11:08:00;;;;;;;3.40;3.20;;;;;;;3.74;56.28;100390.91;5038898;28;20043;-40
2024/01/16 11:10:27;;;;;;;0.10;0.10;;;;;;;3.83;56.63;100384.53;5038185;28;20033;-40
2024/01/16 11:12:53;;;;;;;0.13;0.13;;;;;;;3.80;56.10;100385.50;5038364;28;20026;-40
2024/01/16 11:15:19;;;;;;;0.10;0.10;;;;;;;3.79;56.27;100386.41;5039927;28;20033;-40
2024/01/16 11:17:46;;;;;;;0.10;0.10;;;;;;;3.57;56.47;100392.34;5042277;28;21868;-40
2024/01/16 11:20:14;;;;;;;0.10;0.10;;;;;;;3.69;56.56;100385.88;5040507;28;20048;-39
2024/01/16 11:22:42;;;;;;;0.10;0.10;;;;;;;3.73;56.90;100389.19;5037500;28;20086;-40
2024/01/16 11:25:18;;;;;;;0.10;0.10;;;;;;;3.88;56.97;100386.06;5038543;28;20045;-40
2024/01/16 11:27:44;;;;;;;0.10;0.10;;;;;;;3.90;56.80;100384.25;5041354;28;20033;-40
2024/01/16 11:30:12;;;;;;;0.10;0.10;;;;;;;3.78;56.68;100385.53;5039523;28;20123;-39
2024/01/16 11:32:40;;;;;;;0.10;0.10;;;;;;;3.74;57.33;100385.69;5040551;28;20083;-40